createdAt,value
2022-10-05T00:00:18.489Z,79.7
2022-10-05T00:01:18.699Z,79.6
2022-10-05T00:02:18.490Z,79.5
2022-10-05T00:03:18.490Z,79.5
2022-10-05T00:21:19.023Z,78.9
2022-10-05T00:22:18.660Z,79.0
2022-10-05T00:23:18.666Z,78.9
2022-10-05T00:24:18.672Z,78.8
2022-10-05T00:25:18.672Z,78.8
2022-10-05T00:26:18.684Z,78.7
2022-10-05T00:27:18.688Z,78.7
2022-10-05T00:28:18.995Z,78.6
2022-10-05T00:29:18.705Z,78.6
2022-10-05T00:30:18.718Z,78.6
2022-10-05T00:31:18.961Z,78.5
2022-10-05T00:32:18.719Z,78.5
2022-10-05T00:33:18.744Z,78.4
2022-10-05T00:34:18.730Z,78.3
2022-10-05T00:35:18.743Z,78.3
2022-10-05T00:36:18.738Z,78.3
2022-10-05T00:37:18.755Z,78.2
2022-10-05T00:38:18.759Z,78.1
2022-10-05T00:39:18.763Z,78.2
2022-10-05T00:40:18.779Z,78.2
2022-10-05T00:41:18.796Z,78.2
2022-10-05T00:42:18.793Z,78.2
2022-10-05T00:43:18.814Z,78.2
2022-10-05T00:44:18.815Z,78.2
2022-10-05T00:45:18.817Z,78.2
2022-10-05T00:46:19.104Z,78.2
2022-10-05T00:47:18.827Z,78.1
2022-10-05T00:48:18.848Z,77.9
2022-10-05T00:49:18.853Z,77.9
2022-10-05T00:50:18.869Z,78.0
2022-10-05T00:51:18.866Z,78.0
2022-10-05T00:52:18.876Z,78.0
2022-10-05T00:53:18.889Z,77.9
2022-10-05T00:54:18.894Z,77.8
2022-10-05T00:55:18.899Z,77.8
2022-10-05T00:56:18.913Z,77.7
2022-10-05T00:57:18.915Z,77.7
2022-10-05T00:58:18.929Z,77.6
2022-10-05T00:59:18.939Z,77.5
2022-10-05T01:00:18.962Z,77.5
2022-10-05T01:01:19.110Z,77.5
2022-10-05T01:02:19.234Z,77.4
2022-10-05T01:03:18.968Z,77.3
2022-10-05T01:04:18.977Z,77.3
2022-10-05T01:05:18.982Z,77.3
2022-10-05T01:06:18.988Z,77.2
2022-10-05T01:07:19.001Z,77.2
2022-10-05T01:08:19.010Z,77.1
2022-10-05T01:09:19.009Z,77.2
2022-10-05T01:10:19.018Z,77.1
2022-10-05T01:11:19.036Z,77.1
2022-10-05T01:12:19.032Z,77.0
2022-10-05T01:13:19.038Z,77.0
2022-10-05T01:14:19.061Z,77.0
2022-10-05T01:15:19.043Z,77.0
2022-10-05T01:16:19.355Z,77.1
2022-10-05T02:28:20.275Z,75.7
2022-10-05T02:29:19.650Z,75.7
2022-10-05T02:30:19.662Z,75.7
2022-10-05T02:31:19.801Z,75.7
2022-10-05T02:32:19.676Z,75.7
2022-10-05T02:33:19.701Z,75.7
2022-10-05T02:34:19.697Z,75.8
2022-10-05T02:35:19.704Z,75.8
2022-10-05T02:36:19.724Z,75.8
2022-10-05T02:37:19.719Z,75.9
2022-10-05T02:38:19.731Z,75.9
2022-10-05T02:39:19.753Z,75.9
2022-10-05T02:40:19.755Z,75.7
2022-10-05T02:41:19.765Z,75.7
2022-10-05T02:42:19.761Z,75.7
2022-10-05T02:43:19.781Z,75.7
2022-10-05T02:44:19.777Z,75.8
2022-10-05T02:45:19.797Z,75.8
2022-10-05T02:46:20.049Z,75.8
2022-10-05T02:47:19.812Z,75.8
2022-10-05T02:48:19.817Z,75.7
2022-10-05T02:49:19.828Z,75.8
2022-10-05T02:50:19.838Z,75.8
2022-10-05T02:51:19.846Z,75.8
2022-10-05T02:52:19.847Z,75.7
2022-10-05T02:53:19.859Z,75.7
2022-10-05T02:54:19.870Z,75.7
2022-10-05T02:55:19.882Z,75.7
2022-10-05T02:56:19.888Z,75.7
2022-10-05T02:57:19.902Z,75.8
2022-10-05T02:58:19.905Z,76.0
2022-10-05T02:59:19.907Z,76.0
2022-10-05T03:00:19.921Z,76.1
2022-10-05T03:01:20.298Z,76.2
2022-10-05T03:02:20.169Z,76.2
2022-10-05T03:03:19.940Z,76.2
2022-10-05T03:04:19.960Z,76.2
2022-10-05T03:05:19.995Z,76.2
2022-10-05T03:06:19.968Z,76.3
2022-10-05T03:07:20.012Z,76.3
2022-10-05T03:08:19.988Z,76.4
2022-10-05T03:09:20.002Z,76.4
2022-10-05T03:10:20.012Z,76.5
2022-10-05T03:11:20.023Z,76.6
2022-10-05T03:12:20.021Z,76.7
2022-10-05T03:13:20.044Z,76.8
2022-10-05T03:14:20.041Z,76.7
2022-10-05T03:15:20.062Z,76.7
2022-10-05T03:16:20.322Z,76.7
2022-10-05T03:17:20.069Z,76.8
2022-10-05T03:18:20.082Z,76.8
2022-10-05T03:19:20.103Z,76.8
2022-10-05T03:20:20.109Z,76.7
2022-10-05T03:21:20.126Z,76.7
2022-10-05T03:22:20.130Z,76.7
2022-10-05T03:23:20.131Z,76.7
2022-10-05T03:24:20.136Z,76.7
2022-10-05T03:25:20.141Z,76.7
2022-10-05T03:26:20.152Z,76.8
2022-10-05T03:27:20.156Z,76.7
2022-10-05T03:28:20.347Z,76.7
2022-10-05T03:29:20.180Z,76.7
2022-10-05T03:30:20.189Z,76.6
2022-10-05T03:31:20.430Z,76.6
2022-10-05T03:32:20.202Z,76.5
2022-10-05T03:33:20.210Z,76.4
2022-10-05T03:34:20.218Z,76.4
2022-10-05T03:35:20.214Z,76.3
2022-10-05T03:36:20.219Z,76.2
2022-10-05T03:37:20.237Z,76.2
2022-10-05T03:38:20.247Z,76.2
2022-10-05T03:39:20.258Z,76.1
2022-10-05T03:40:20.266Z,76.1
2022-10-05T03:41:20.269Z,76.1
2022-10-05T03:42:20.269Z,76.1
2022-10-05T03:43:20.282Z,76.2
2022-10-05T03:44:20.304Z,76.2
2022-10-05T03:45:20.297Z,76.2
2022-10-05T03:46:20.588Z,76.2
2022-10-05T03:47:20.349Z,76.2
2022-10-05T03:48:20.328Z,76.1
2022-10-05T03:49:20.346Z,76.0
2022-10-05T03:50:20.341Z,75.9
2022-10-05T03:51:20.351Z,75.9
2022-10-05T03:52:20.372Z,75.9
2022-10-05T03:53:20.379Z,75.9
2022-10-05T03:54:20.381Z,75.9
2022-10-05T03:55:20.391Z,76.0
2022-10-05T03:56:20.416Z,76.0
2022-10-05T03:57:20.410Z,76.0
2022-10-05T03:58:20.417Z,76.0
2022-10-05T03:59:20.419Z,76.0
2022-10-05T04:00:20.457Z,76.0
2022-10-05T04:01:20.604Z,76.0
2022-10-05T04:02:20.596Z,76.0
2022-10-05T04:03:20.466Z,75.9
2022-10-05T04:04:20.469Z,75.9
2022-10-05T04:05:20.473Z,75.9
2022-10-05T04:06:20.491Z,75.9
2022-10-05T04:07:20.511Z,75.9
2022-10-05T04:08:20.513Z,75.8
2022-10-05T04:09:20.526Z,75.8
2022-10-05T04:10:20.535Z,75.8
2022-10-05T04:11:20.544Z,75.8
2022-10-05T04:12:20.552Z,75.8
2022-10-05T04:13:20.561Z,75.8
2022-10-05T04:14:20.568Z,75.8
2022-10-05T04:15:20.571Z,75.8
2022-10-05T04:16:20.672Z,75.8
2022-10-05T04:17:20.588Z,75.8
2022-10-05T04:18:20.598Z,75.8
2022-10-05T04:19:20.602Z,75.8
2022-10-05T04:20:20.617Z,75.8
2022-10-05T04:21:24.286Z,75.7
2022-10-05T04:22:20.631Z,75.8
2022-10-05T04:23:20.631Z,75.8
2022-10-05T04:24:20.642Z,75.8
2022-10-05T04:25:20.652Z,75.8
2022-10-05T04:26:20.666Z,75.8
2022-10-05T04:27:20.689Z,75.8
2022-10-05T04:28:20.833Z,75.8
2022-10-05T04:29:20.690Z,75.8
2022-10-05T04:30:20.701Z,75.8
2022-10-05T04:31:20.918Z,75.9
2022-10-05T04:32:20.743Z,75.8
2022-10-05T04:33:20.734Z,75.8
2022-10-05T04:34:20.750Z,75.8
2022-10-05T04:35:20.755Z,75.8
2022-10-05T04:36:20.777Z,75.7
2022-10-05T04:37:20.770Z,75.8
2022-10-05T04:38:20.776Z,75.7
2022-10-05T04:39:20.787Z,75.8
2022-10-05T04:40:20.785Z,75.8
2022-10-05T04:41:20.796Z,75.8
2022-10-05T04:42:20.805Z,75.7
2022-10-05T04:43:20.811Z,75.8
2022-10-05T04:44:20.823Z,75.8
2022-10-05T04:45:20.831Z,75.9
2022-10-05T04:46:21.014Z,75.9
2022-10-05T04:47:20.843Z,75.8
2022-10-05T04:48:20.856Z,75.8
2022-10-05T04:49:20.861Z,75.8
2022-10-05T04:50:20.871Z,75.8
2022-10-05T04:51:20.874Z,75.8
2022-10-05T04:52:20.888Z,75.8
2022-10-05T04:53:20.901Z,75.8
2022-10-05T04:54:20.913Z,75.9
2022-10-05T04:55:20.925Z,75.9
2022-10-05T04:56:20.930Z,76.0
2022-10-05T04:57:20.949Z,76.0
2022-10-05T04:58:20.956Z,75.9
2022-10-05T04:59:20.972Z,75.9
2022-10-05T05:00:20.974Z,75.8
2022-10-05T05:01:21.172Z,75.8
2022-10-05T05:02:20.981Z,75.8
2022-10-05T05:03:21.180Z,75.8
2022-10-05T05:04:21.002Z,75.8
2022-10-05T05:05:21.006Z,75.8
2022-10-05T05:06:21.012Z,75.9
2022-10-05T05:07:21.017Z,76.0
2022-10-05T05:08:21.034Z,76.0
2022-10-05T05:09:21.038Z,76.0
2022-10-05T05:10:21.049Z,76.0
2022-10-05T05:11:24.876Z,76.0
2022-10-05T05:12:21.058Z,76.0
2022-10-05T05:13:21.084Z,76.0
2022-10-05T05:14:21.086Z,76.0
2022-10-05T05:15:21.091Z,76.0
2022-10-05T05:16:21.386Z,76.0
2022-10-05T05:17:21.115Z,76.0
2022-10-05T05:18:21.114Z,76.0
2022-10-05T05:19:21.136Z,76.0
2022-10-05T05:20:21.148Z,76.0
2022-10-05T05:21:21.146Z,76.0
2022-10-05T05:22:21.164Z,76.0
2022-10-05T05:23:21.167Z,76.0
2022-10-05T05:24:21.195Z,76.1
2022-10-05T05:25:21.212Z,76.0
2022-10-05T05:26:21.188Z,76.0
2022-10-05T05:27:21.201Z,76.0
2022-10-05T05:28:21.556Z,76.1
2022-10-05T05:29:21.219Z,76.1
2022-10-05T05:30:21.265Z,76.1
2022-10-05T05:31:21.554Z,76.1
2022-10-05T05:32:21.261Z,76.2
2022-10-05T05:33:21.277Z,76.1
2022-10-05T05:34:21.278Z,76.1
2022-10-05T05:35:21.287Z,76.1
2022-10-05T05:36:23.804Z,76.1
2022-10-05T05:37:21.301Z,76.2
2022-10-05T05:38:21.308Z,76.2
2022-10-05T05:39:21.319Z,76.3
2022-10-05T05:40:21.330Z,76.3
2022-10-05T05:41:21.346Z,76.2
2022-10-05T05:42:21.353Z,76.3
2022-10-05T05:43:21.366Z,76.3
2022-10-05T05:44:21.372Z,76.3
2022-10-05T05:45:21.380Z,76.3
2022-10-05T05:47:02.094Z,76.3
2022-10-05T05:47:21.665Z,76.3
2022-10-05T05:48:21.420Z,76.3
2022-10-05T05:49:21.417Z,76.3
2022-10-05T05:50:21.420Z,76.3
2022-10-05T05:51:21.437Z,76.3
2022-10-05T05:52:21.449Z,76.4
2022-10-05T05:53:21.457Z,76.5
2022-10-05T05:54:21.465Z,76.5
2022-10-05T05:55:21.491Z,76.5
2022-10-05T05:56:21.489Z,76.6
2022-10-05T05:57:21.499Z,76.7
2022-10-05T05:58:21.511Z,76.6
2022-10-05T05:59:21.510Z,76.6
2022-10-05T06:00:21.531Z,76.7
2022-10-05T06:01:34.270Z,76.7
2022-10-05T06:02:22.033Z,76.7
2022-10-05T06:03:21.934Z,76.7
2022-10-05T06:04:21.568Z,76.6
2022-10-05T06:05:21.574Z,76.6
2022-10-05T06:06:21.591Z,76.6
2022-10-05T06:07:21.591Z,76.6
2022-10-05T06:08:21.588Z,76.5
2022-10-05T06:09:21.602Z,76.5
2022-10-05T06:10:21.612Z,76.5
2022-10-05T06:11:21.627Z,76.5
2022-10-05T06:12:21.622Z,76.6
2022-10-05T06:13:21.629Z,76.6
2022-10-05T06:14:21.634Z,76.7
2022-10-05T06:15:21.645Z,76.7
2022-10-05T06:16:21.871Z,76.8
2022-10-05T06:17:21.665Z,76.9
2022-10-05T06:18:21.694Z,77.0
2022-10-05T06:19:21.700Z,77.0
2022-10-05T06:20:21.697Z,77.0
2022-10-05T06:21:21.704Z,77.0
2022-10-05T06:22:21.717Z,76.9
2022-10-05T06:23:21.726Z,76.8
2022-10-05T06:24:21.734Z,76.7
2022-10-05T06:25:21.741Z,76.7
2022-10-05T06:26:21.766Z,76.7
2022-10-05T06:27:21.760Z,76.6
2022-10-05T06:28:22.003Z,76.5
2022-10-05T06:29:21.777Z,76.6
2022-10-05T06:30:21.781Z,76.6
2022-10-05T06:31:21.969Z,76.4
2022-10-05T06:32:21.797Z,76.1
2022-10-05T06:33:21.811Z,76.1
2022-10-05T06:34:21.822Z,76.0
2022-10-05T06:35:21.831Z,76.0
2022-10-05T06:36:21.839Z,76.0
2022-10-05T06:37:21.855Z,76.0
2022-10-05T06:38:21.857Z,76.0
2022-10-05T06:39:21.865Z,76.2
2022-10-05T06:40:21.866Z,76.2
2022-10-05T06:41:21.881Z,76.3
2022-10-05T06:42:21.891Z,76.3
2022-10-05T06:43:21.917Z,76.3
2022-10-05T06:44:21.909Z,76.4
2022-10-05T06:45:21.932Z,76.4
2022-10-05T06:46:22.216Z,76.3
2022-10-05T06:47:21.942Z,76.3
2022-10-05T06:48:21.947Z,76.4
2022-10-05T06:49:21.953Z,76.4
2022-10-05T06:50:21.956Z,76.4
2022-10-05T06:51:21.975Z,76.4
2022-10-05T06:52:21.970Z,76.4
2022-10-05T06:53:21.974Z,76.3
2022-10-05T06:54:21.995Z,76.3
2022-10-05T06:55:22.002Z,76.2
2022-10-05T06:56:22.015Z,76.3
2022-10-05T06:57:22.024Z,76.2
2022-10-05T06:58:22.051Z,76.1
2022-10-05T06:59:22.035Z,76.1
2022-10-05T07:00:22.046Z,76.1
2022-10-05T07:01:22.236Z,76.0
2022-10-05T07:02:22.306Z,76.0
2022-10-05T07:03:22.090Z,75.9
2022-10-05T07:04:22.089Z,75.7
2022-10-05T07:05:22.099Z,75.7
2022-10-05T07:06:22.116Z,75.7
2022-10-05T07:07:22.118Z,75.7
2022-10-05T07:08:22.125Z,75.7
2022-10-05T07:09:22.136Z,75.6
2022-10-05T07:10:22.145Z,75.6
2022-10-05T07:11:22.160Z,75.6
2022-10-05T07:12:22.165Z,75.6
2022-10-05T07:13:22.179Z,75.5
2022-10-05T07:14:22.191Z,75.3
2022-10-05T07:15:22.194Z,75.3
2022-10-05T07:16:22.385Z,75.1
2022-10-05T07:17:22.261Z,75.1
2022-10-05T07:18:22.218Z,74.9
2022-10-05T07:19:22.224Z,74.9
2022-10-05T07:20:22.228Z,74.9
2022-10-05T07:21:22.250Z,74.9
2022-10-05T07:22:22.280Z,74.9
2022-10-05T07:23:22.260Z,74.8
2022-10-05T07:24:22.275Z,74.6
2022-10-05T07:25:22.276Z,74.5
2022-10-05T07:26:22.291Z,74.5
2022-10-05T07:27:22.299Z,74.5
2022-10-05T07:28:22.471Z,74.4
2022-10-05T07:29:22.312Z,74.2
2022-10-05T07:30:22.342Z,73.9
2022-10-05T07:31:22.596Z,73.6
2022-10-05T07:32:22.356Z,73.5
2022-10-05T07:33:22.359Z,73.5
2022-10-05T07:34:22.372Z,73.4
2022-10-05T07:35:22.384Z,73.4
2022-10-05T07:36:22.399Z,73.2
2022-10-05T07:37:22.402Z,73.2
2022-10-05T07:38:22.411Z,73.0
2022-10-05T07:39:28.745Z,73.0
2022-10-05T07:40:22.779Z,72.9
2022-10-05T07:41:22.452Z,72.8
2022-10-05T07:42:22.459Z,72.5
2022-10-05T07:43:22.495Z,72.4
2022-10-05T07:44:22.493Z,72.2
2022-10-05T07:45:22.531Z,72.1
2022-10-05T07:46:22.901Z,72.0
2022-10-05T07:47:22.531Z,71.9
2022-10-05T07:48:22.537Z,71.8
2022-10-05T07:49:22.549Z,71.9
2022-10-05T07:50:22.878Z,71.9
2022-10-05T07:51:22.567Z,71.9
2022-10-05T07:52:22.581Z,71.8
2022-10-05T07:53:22.587Z,71.8
2022-10-05T07:54:22.761Z,71.9
2022-10-05T07:55:22.608Z,71.9
2022-10-05T07:56:22.621Z,71.9
2022-10-05T07:57:22.625Z,71.9
2022-10-05T07:58:22.637Z,71.9
2022-10-05T07:59:22.643Z,71.8
2022-10-05T08:00:23.087Z,72.0
2022-10-05T08:01:22.969Z,72.2
2022-10-05T08:02:23.088Z,72.1
2022-10-05T08:03:22.917Z,72.3
2022-10-05T08:04:22.742Z,72.4
2022-10-05T08:05:22.712Z,72.5
2022-10-05T08:06:22.724Z,72.5
2022-10-05T08:08:22.750Z,72.8
2022-10-05T08:09:22.812Z,72.7
2022-10-05T08:10:22.780Z,72.5
2022-10-05T08:11:22.840Z,72.5
2022-10-05T08:12:22.795Z,72.7
2022-10-05T08:13:22.796Z,72.2
2022-10-05T08:14:22.805Z,72.5
2022-10-05T08:15:22.827Z,72.4
2022-10-05T08:16:23.040Z,71.9
2022-10-05T08:17:26.633Z,71.9
2022-10-05T08:18:22.900Z,71.8
2022-10-05T08:19:22.855Z,71.1
2022-10-05T08:20:22.866Z,71.3
2022-10-05T08:21:22.891Z,71.3
2022-10-05T08:22:22.889Z,71.3
2022-10-05T08:23:22.900Z,71.1
2022-10-05T08:24:22.917Z,70.7
2022-10-05T08:25:22.917Z,70.8
2022-10-05T08:26:22.929Z,70.6
2022-10-05T08:27:22.935Z,70.7
2022-10-05T08:28:23.142Z,70.3
2022-10-05T08:29:22.961Z,70.3
2022-10-05T08:30:22.973Z,70.1
2022-10-05T08:31:23.177Z,70.0
2022-10-05T08:32:22.998Z,69.9
2022-10-05T08:33:23.001Z,69.6
2022-10-05T08:34:23.013Z,69.5
2022-10-05T08:35:23.024Z,69.3
2022-10-05T08:36:23.079Z,69.4
2022-10-05T08:37:23.056Z,69.3
2022-10-05T08:38:23.059Z,69.2
2022-10-05T08:39:23.068Z,69.0
2022-10-05T08:40:23.068Z,68.7
2022-10-05T08:41:23.084Z,69.0
2022-10-05T08:42:23.095Z,69.0
2022-10-05T08:43:23.107Z,69.0
2022-10-05T08:44:23.113Z,68.7
2022-10-05T08:45:23.114Z,68.6
2022-10-05T08:46:23.504Z,68.3
2022-10-05T08:47:23.134Z,68.0
2022-10-05T08:48:23.181Z,67.9
2022-10-05T08:49:23.159Z,67.8
2022-10-05T08:50:23.161Z,67.6
2022-10-05T08:51:23.178Z,67.5
2022-10-05T08:52:23.196Z,67.3
2022-10-05T08:53:23.190Z,67.2
2022-10-05T08:54:23.199Z,67.1
2022-10-05T08:55:23.216Z,67.0
2022-10-05T08:56:29.230Z,66.9
2022-10-05T08:57:23.235Z,66.9
2022-10-05T08:58:23.238Z,66.7
2022-10-05T08:59:23.261Z,66.2
2022-10-05T09:00:23.276Z,66.0
2022-10-05T09:01:23.409Z,66.3
2022-10-05T09:02:23.436Z,66.4
2022-10-05T09:03:23.281Z,66.4
2022-10-05T09:04:23.295Z,66.5
2022-10-05T09:05:23.314Z,66.4
2022-10-05T09:06:23.314Z,66.2
2022-10-05T09:07:23.322Z,66.0
2022-10-05T09:08:23.340Z,65.2
2022-10-05T09:09:23.343Z,65.8
2022-10-05T09:10:23.371Z,65.7
2022-10-05T09:11:23.367Z,65.6
2022-10-05T09:12:23.385Z,65.4
2022-10-05T09:13:23.402Z,65.8
2022-10-05T09:14:23.408Z,66.0
2022-10-05T09:15:27.046Z,66.3
2022-10-05T09:16:23.606Z,66.3
2022-10-05T09:17:23.440Z,65.7
2022-10-05T09:18:23.442Z,65.8
2022-10-05T09:19:23.457Z,65.2
2022-10-05T09:20:23.457Z,65.1
2022-10-05T09:21:23.485Z,64.9
2022-10-05T09:22:23.486Z,64.2
2022-10-05T09:23:23.502Z,64.7
2022-10-05T09:24:23.494Z,64.4
2022-10-05T09:25:23.505Z,64.2
2022-10-05T09:26:23.517Z,64.3
2022-10-05T09:27:23.531Z,64.4
2022-10-05T09:28:23.801Z,63.9
2022-10-05T09:29:23.558Z,63.7
2022-10-05T09:30:23.571Z,63.5
2022-10-05T09:31:23.844Z,62.9
2022-10-05T09:32:23.595Z,63.3
2022-10-05T09:33:23.612Z,62.9
2022-10-05T09:34:23.616Z,62.8
2022-10-05T09:35:23.662Z,62.9
2022-10-05T09:36:23.629Z,62.6
2022-10-05T09:37:23.635Z,62.4
2022-10-05T09:38:23.643Z,62.4
2022-10-05T09:39:23.668Z,62.4
2022-10-05T09:40:23.667Z,62.1
2022-10-05T09:41:23.671Z,62.4
2022-10-05T09:42:23.677Z,62.6
2022-10-05T09:43:24.062Z,63.0
2022-10-05T09:44:23.805Z,63.2
2022-10-05T09:45:23.707Z,63.0
2022-10-05T09:46:23.864Z,62.7
2022-10-05T09:47:23.729Z,63.0
2022-10-05T09:48:23.747Z,62.2
2022-10-05T09:49:23.752Z,62.5
2022-10-05T09:50:23.757Z,61.7
2022-10-05T09:51:23.769Z,62.3
2022-10-05T09:52:23.785Z,62.0
2022-10-05T09:53:23.787Z,61.8
2022-10-05T09:54:23.806Z,62.1
2022-10-05T09:55:23.810Z,61.3
2022-10-05T09:56:24.020Z,61.6
2022-10-05T09:57:23.828Z,61.1
2022-10-05T09:58:23.842Z,61.2
2022-10-05T09:59:23.863Z,60.4
2022-10-05T10:00:23.868Z,60.2
2022-10-05T10:01:34.859Z,60.9
2022-10-05T10:02:24.296Z,59.9
2022-10-05T10:03:24.093Z,59.6
2022-10-05T10:04:23.920Z,59.7
2022-10-05T10:05:23.933Z,60.3
2022-10-05T10:06:23.936Z,59.9
2022-10-05T10:07:23.952Z,60.2
2022-10-05T10:08:23.956Z,59.9
2022-10-05T10:09:23.964Z,59.8
2022-10-05T10:10:23.990Z,60.0
2022-10-05T10:11:23.997Z,59.7
2022-10-05T10:12:24.000Z,60.6
2022-10-05T10:13:24.018Z,60.2
2022-10-05T10:14:24.041Z,59.7
2022-10-05T10:15:24.050Z,59.9
2022-10-05T10:16:24.243Z,60.4
2022-10-05T10:17:24.069Z,60.3
2022-10-05T10:18:24.086Z,59.7
2022-10-05T10:19:24.102Z,60.0
2022-10-05T10:20:24.105Z,60.2
2022-10-05T10:21:24.104Z,60.6
2022-10-05T10:22:24.126Z,60.6
2022-10-05T10:23:24.139Z,60.6
2022-10-05T10:24:24.147Z,60.1
2022-10-05T10:25:24.170Z,60.1
2022-10-05T10:26:24.197Z,60.3
2022-10-05T10:27:24.182Z,60.4
2022-10-05T10:28:24.410Z,59.8
2022-10-05T10:29:24.441Z,61.0
2022-10-05T10:30:29.499Z,61.1
2022-10-05T10:31:24.403Z,61.6
2022-10-05T10:32:24.250Z,61.4
2022-10-05T10:33:24.265Z,62.0
2022-10-05T10:34:24.276Z,62.1
2022-10-05T10:35:24.413Z,61.5
2022-10-05T10:36:24.300Z,61.1
2022-10-05T10:37:24.307Z,61.4
2022-10-05T10:38:24.327Z,61.1
2022-10-05T10:39:24.336Z,60.7
2022-10-05T10:40:24.556Z,61.5
2022-10-05T10:41:24.371Z,61.4
2022-10-05T10:42:26.525Z,61.7
2022-10-05T10:43:24.386Z,61.9
2022-10-05T10:44:24.383Z,61.9
2022-10-05T10:45:24.387Z,61.9
2022-10-05T10:46:24.619Z,61.9
2022-10-05T10:47:24.406Z,61.9
2022-10-05T10:48:24.408Z,61.9
2022-10-05T10:49:24.425Z,61.5
2022-10-05T10:50:24.449Z,61.2
2022-10-05T10:51:24.467Z,61.2
2022-10-05T10:52:24.512Z,61.4
2022-10-05T10:53:24.492Z,61.4
2022-10-05T10:54:24.503Z,61.5
2022-10-05T10:55:24.504Z,61.1
2022-10-05T10:56:24.509Z,61.0
2022-10-05T10:57:24.522Z,61.2
2022-10-05T10:58:24.718Z,61.5
2022-10-05T10:59:31.771Z,61.2
2022-10-05T11:00:24.561Z,61.5
2022-10-05T11:01:24.928Z,61.4
2022-10-05T11:02:24.789Z,61.7
2022-10-05T11:03:24.610Z,61.4
2022-10-05T11:04:24.621Z,61.5
2022-10-05T11:05:24.635Z,61.4
2022-10-05T11:06:24.647Z,61.1
2022-10-05T11:07:24.656Z,61.3
2022-10-05T11:08:24.676Z,61.4
2022-10-05T11:09:24.676Z,61.5
2022-10-05T11:10:24.750Z,61.9
2022-10-05T11:11:24.708Z,61.8
2022-10-05T11:12:24.736Z,61.9
2022-10-05T11:13:24.749Z,62.1
2022-10-05T11:14:24.744Z,61.9
2022-10-05T11:15:24.777Z,61.7
2022-10-05T11:16:24.771Z,61.6
2022-10-05T11:17:24.794Z,61.2
2022-10-05T11:18:24.804Z,61.3
2022-10-05T11:19:59.495Z,61.5
2022-10-05T11:20:24.806Z,61.4
2022-10-05T11:21:24.815Z,61.5
2022-10-05T11:22:24.841Z,61.3
2022-10-05T11:23:24.852Z,61.5
2022-10-05T11:24:24.863Z,61.5
2022-10-05T11:25:24.866Z,61.3
2022-10-05T11:26:24.886Z,61.2
2022-10-05T11:27:24.912Z,61.5
2022-10-05T11:28:25.190Z,61.1
2022-10-05T11:29:24.929Z,61.7
2022-10-05T11:30:24.941Z,61.5
2022-10-05T11:31:25.112Z,61.5
2022-10-05T11:32:24.969Z,61.0
2022-10-05T11:33:24.973Z,61.3
2022-10-05T11:34:24.976Z,61.3
2022-10-05T11:35:24.990Z,61.7
2022-10-05T11:36:25.003Z,61.3
2022-10-05T11:37:25.019Z,61.4
2022-10-05T11:38:25.022Z,61.1
2022-10-05T11:39:25.045Z,61.2
2022-10-05T11:40:25.131Z,61.6
2022-10-05T11:41:25.140Z,61.5
2022-10-05T11:42:25.078Z,60.8
2022-10-05T11:43:25.111Z,61.1
2022-10-05T11:44:25.100Z,61.6
2022-10-05T11:45:25.170Z,61.6
2022-10-05T11:46:25.362Z,61.5
2022-10-05T11:47:25.128Z,61.5
2022-10-05T11:48:25.128Z,61.3
2022-10-05T11:49:25.142Z,61.6
2022-10-05T11:50:25.150Z,61.7
2022-10-05T11:51:29.245Z,61.6
2022-10-05T11:52:25.172Z,61.4
2022-10-05T11:53:25.186Z,61.3
2022-10-05T11:54:25.207Z,60.7
2022-10-05T11:55:25.208Z,61.2
2022-10-05T11:56:25.319Z,61.4
2022-10-05T11:57:25.255Z,61.3
2022-10-05T11:58:25.241Z,61.1
2022-10-05T11:59:25.254Z,60.8
2022-10-05T12:00:25.275Z,60.7
2022-10-05T12:01:25.266Z,60.7
2022-10-05T12:02:25.283Z,60.6
2022-10-05T12:03:25.613Z,60.7
2022-10-05T12:04:25.300Z,60.7
2022-10-05T12:05:25.316Z,60.4
2022-10-05T12:06:25.330Z,60.3
2022-10-05T12:07:25.436Z,59.7
2022-10-05T12:08:25.352Z,60.1
2022-10-05T12:09:25.367Z,59.9
2022-10-05T12:10:25.386Z,59.7
2022-10-05T12:11:25.385Z,60.0
2022-10-05T12:12:25.394Z,60.1
2022-10-05T12:13:25.420Z,60.0
2022-10-05T12:14:25.420Z,60.0
2022-10-05T12:15:25.430Z,60.0
2022-10-05T12:16:25.619Z,60.0
2022-10-05T12:17:25.465Z,60.0
2022-10-05T12:18:25.475Z,60.3
2022-10-05T12:19:25.494Z,60.0
2022-10-05T12:20:25.497Z,59.4
2022-10-05T12:21:25.505Z,59.4
2022-10-05T12:22:25.507Z,59.0
2022-10-05T12:23:25.533Z,58.8
2022-10-05T12:24:27.236Z,59.1
2022-10-05T12:25:25.557Z,58.8
2022-10-05T12:26:25.552Z,58.4
2022-10-05T12:27:25.607Z,58.4
2022-10-05T12:28:25.766Z,58.4
2022-10-05T12:29:25.594Z,57.9
2022-10-05T12:30:25.596Z,58.4
2022-10-05T12:31:25.825Z,58.1
2022-10-05T12:32:25.622Z,58.0
2022-10-05T12:33:25.634Z,57.9
2022-10-05T12:34:25.640Z,58.3
2022-10-05T12:35:49.270Z,58.1
2022-10-05T12:37:03.369Z,58.2
2022-10-05T12:37:25.673Z,57.4
2022-10-05T12:38:25.837Z,57.2
2022-10-05T12:39:25.685Z,57.2
2022-10-05T12:40:25.712Z,57.8
2022-10-05T12:41:25.726Z,56.6
2022-10-05T12:42:25.742Z,56.8
2022-10-05T12:43:25.754Z,56.7
2022-10-05T12:44:25.758Z,56.3
2022-10-05T12:45:25.969Z,56.0
2022-10-05T12:46:25.795Z,57.0
2022-10-05T12:47:25.805Z,57.2
2022-10-05T12:48:25.817Z,57.5
2022-10-05T12:49:25.843Z,56.7
2022-10-05T12:50:25.854Z,56.8
2022-10-05T12:51:25.893Z,56.9
2022-10-05T12:52:25.881Z,56.1
2022-10-05T12:53:25.922Z,56.2
2022-10-05T12:54:25.894Z,56.0
2022-10-05T12:55:25.906Z,55.7
2022-10-05T12:56:25.918Z,56.1
2022-10-05T12:57:25.930Z,56.4
2022-10-05T12:58:25.942Z,56.2
2022-10-05T12:59:25.958Z,55.8
2022-10-05T13:00:25.961Z,55.8
2022-10-05T13:01:25.972Z,56.3
2022-10-05T13:02:25.980Z,56.6
2022-10-05T13:03:26.005Z,56.4
2022-10-05T13:04:25.998Z,56.2
2022-10-05T13:05:26.017Z,56.1
2022-10-05T13:06:26.024Z,55.9
2022-10-05T13:07:26.036Z,56.4
2022-10-05T13:08:26.039Z,56.0
2022-10-05T13:09:26.047Z,56.1
2022-10-05T13:10:26.233Z,56.2
2022-10-05T13:11:26.064Z,56.0
2022-10-05T13:12:26.077Z,55.9
2022-10-05T13:13:26.092Z,56.3
2022-10-05T13:14:26.098Z,55.9
2022-10-05T13:15:26.108Z,56.4
2022-10-05T13:16:26.273Z,55.6
2022-10-05T13:17:26.151Z,56.2
2022-10-05T13:18:26.158Z,56.0
2022-10-05T13:19:26.172Z,56.1
2022-10-05T13:20:26.173Z,56.3
2022-10-05T13:21:26.929Z,56.6
2022-10-05T13:22:26.181Z,56.2
2022-10-05T13:23:26.199Z,56.3
2022-10-05T13:24:26.214Z,56.2
2022-10-05T13:25:26.234Z,56.2
2022-10-05T13:26:26.238Z,56.6
2022-10-05T13:27:26.244Z,56.3
2022-10-05T13:28:26.497Z,56.5
2022-10-05T13:29:26.274Z,56.4
2022-10-05T13:30:26.278Z,56.8
2022-10-05T13:31:26.481Z,57.1
2022-10-05T13:32:26.310Z,56.7
2022-10-05T13:33:26.336Z,56.9
2022-10-05T13:34:26.342Z,57.1
2022-10-05T13:35:26.361Z,57.1
2022-10-05T13:36:26.374Z,57.1
2022-10-05T13:37:26.388Z,56.5
2022-10-05T13:38:26.408Z,56.8
2022-10-05T13:39:26.431Z,56.8
2022-10-05T13:40:26.450Z,56.7
2022-10-05T13:41:26.452Z,56.8
2022-10-05T13:42:26.463Z,56.8
2022-10-05T13:43:26.725Z,57.0
2022-10-05T13:44:26.490Z,57.3
2022-10-05T13:45:26.681Z,57.3
2022-10-05T13:46:26.839Z,57.3
2022-10-05T13:47:26.518Z,57.2
2022-10-05T13:48:26.543Z,57.5
2022-10-05T13:49:26.606Z,57.6
2022-10-05T13:50:33.763Z,57.5
2022-10-05T13:51:26.581Z,57.3
2022-10-05T13:52:26.591Z,57.6
2022-10-05T13:53:26.601Z,57.9
2022-10-05T13:54:26.608Z,57.6
2022-10-05T13:55:26.617Z,57.4
2022-10-05T13:56:26.640Z,57.9
2022-10-05T13:57:26.647Z,58.1
2022-10-05T13:58:27.334Z,58.1
2022-10-05T13:59:26.692Z,58.2
2022-10-05T14:00:27.572Z,57.8
2022-10-05T14:01:26.709Z,57.8
2022-10-05T14:02:26.912Z,57.9
2022-10-05T14:03:26.851Z,57.9
2022-10-05T14:04:26.744Z,57.9
2022-10-05T14:05:26.766Z,58.0
2022-10-05T14:06:26.775Z,58.1
2022-10-05T14:07:26.788Z,57.8
2022-10-05T14:08:26.800Z,58.1
2022-10-05T14:09:26.815Z,58.5
2022-10-05T14:10:26.831Z,58.3
2022-10-05T14:11:26.853Z,58.2
2022-10-05T14:12:26.850Z,58.0
2022-10-05T14:13:26.939Z,57.8
2022-10-05T14:14:26.877Z,57.9
2022-10-05T14:15:26.895Z,58.4
2022-10-05T14:16:27.028Z,58.4
2022-10-05T14:17:33.404Z,58.2
2022-10-05T14:18:26.918Z,58.5
2022-10-05T14:19:26.954Z,58.2
2022-10-05T14:20:26.971Z,58.6
2022-10-05T14:21:26.958Z,58.5
2022-10-05T14:22:26.967Z,58.8
2022-10-05T14:23:27.290Z,58.5
2022-10-05T14:24:45.233Z,58.7
2022-10-05T14:25:27.008Z,58.4
2022-10-05T14:26:27.015Z,59.0
2022-10-05T14:27:27.032Z,59.0
2022-10-05T14:28:27.348Z,59.1
2022-10-05T14:29:27.035Z,59.3
2022-10-05T14:30:27.054Z,59.4
2022-10-05T14:31:27.321Z,59.7
2022-10-05T14:32:27.139Z,60.0
2022-10-05T14:33:27.098Z,59.9
2022-10-05T14:34:27.102Z,59.9
2022-10-05T14:35:27.120Z,59.7
2022-10-05T14:36:27.129Z,59.7
2022-10-05T14:37:27.150Z,60.1
2022-10-05T14:38:27.163Z,59.9
2022-10-05T14:39:27.177Z,60.0
2022-10-05T14:40:27.200Z,60.2
2022-10-05T14:41:27.204Z,60.2
2022-10-05T14:42:27.221Z,60.2
2022-10-05T14:43:27.231Z,60.3
2022-10-05T14:44:27.386Z,60.6
2022-10-05T14:45:27.411Z,60.5
2022-10-05T14:46:30.518Z,60.9
2022-10-05T14:47:27.329Z,60.9